sensor_id;sensor_type;location;lat;lon;timestamp;temperature;humidity
6879;DHT22;3478;51.462;7.338;2024-03-29T00:03:59;8.80;1.00
6879;DHT22;3478;51.462;7.338;2024-03-29T00:09:00;8.70;1.00
6879;DHT22;3478;51.462;7.338;2024-03-29T00:14:01;8.70;1.00
6879;DHT22;3478;51.462;7.338;2024-03-29T00:19:03;8.70;1.00
6879;DHT22;3478;51.462;7.338;2024-03-29T00:24:04;8.70;1.00
6879;DHT22;3478;51.462;7.338;2024-03-29T00:29:05;8.70;1.00
6879;DHT22;3478;51.462;7.338;2024-03-29T00:34:07;8.60;1.00
6879;DHT22;3478;51.462;7.338;2024-03-29T00:39:08;8.60;1.00
6879;DHT22;3478;51.462;7.338;2024-03-29T00:44:10;8.60;1.00
6879;DHT22;3478;51.462;7.338;2024-03-29T00:49:12;8.60;10.40
6879;DHT22;3478;51.462;7.338;2024-03-29T00:54:13;8.60;1.00
6879;DHT22;3478;51.462;7.338;2024-03-29T00:59:14;8.60;1.00
6879;DHT22;3478;51.462;7.338;2024-03-29T01:04:17;8.60;1.00
6879;DHT22;3478;51.462;7.338;2024-03-29T01:09:18;8.60;1.00
6879;DHT22;3478;51.462;7.338;2024-03-29T01:14:19;8.50;1.00
6879;DHT22;3478;51.462;7.338;2024-03-29T01:19:21;8.50;1.00
6879;DHT22;3478;51.462;7.338;2024-03-29T01:24:22;8.50;1.00
6879;DHT22;3478;51.462;7.338;2024-03-29T01:29:23;8.50;1.00
6879;DHT22;3478;51.462;7.338;2024-03-29T01:34:25;8.50;1.00
6879;DHT22;3478;51.462;7.338;2024-03-29T01:39:26;8.60;1.00
6879;DHT22;3478;51.462;7.338;2024-03-29T01:44:27;8.60;1.00
6879;DHT22;3478;51.462;7.338;2024-03-29T01:49:31;8.60;1.00
6879;DHT22;3478;51.462;7.338;2024-03-29T01:54:33;8.60;1.00
6879;DHT22;3478;51.462;7.338;2024-03-29T01:59:36;8.70;1.00
6879;DHT22;3478;51.462;7.338;2024-03-29T02:04:40;8.90;1.00
6879;DHT22;3478;51.462;7.338;2024-03-29T02:09:42;8.90;1.00
6879;DHT22;3478;51.462;7.338;2024-03-29T02:14:44;9.00;1.00
6879;DHT22;3478;51.462;7.338;2024-03-29T02:19:47;9.00;1.00
6879;DHT22;3478;51.462;7.338;2024-03-29T02:24:51;9.10;1.00
6879;DHT22;3478;51.462;7.338;2024-03-29T02:29:53;9.10;1.00
6879;DHT22;3478;51.462;7.338;2024-03-29T02:34:55;9.10;1.00
6879;DHT22;3478;51.462;7.338;2024-03-29T02:39:58;9.20;1.00
6879;DHT22;3478;51.462;7.338;2024-03-29T02:45:00;9.20;1.00
6879;DHT22;3478;51.462;7.338;2024-03-29T02:50:03;9.30;1.00
6879;DHT22;3478;51.462;7.338;2024-03-29T02:55:06;9.50;1.00
6879;DHT22;3478;51.462;7.338;2024-03-29T03:00:11;9.60;1.00
6879;DHT22;3478;51.462;7.338;2024-03-29T03:05:13;9.80;1.00
6879;DHT22;3478;51.462;7.338;2024-03-29T03:10:16;9.90;1.00
6879;DHT22;3478;51.462;7.338;2024-03-29T03:15:35;9.90;1.00
6879;DHT22;3478;51.462;7.338;2024-03-29T03:20:37;9.90;1.00
6879;DHT22;3478;51.462;7.338;2024-03-29T03:25:40;9.90;1.00
6879;DHT22;3478;51.462;7.338;2024-03-29T03:30:42;9.80;1.00
6879;DHT22;3478;51.462;7.338;2024-03-29T03:35:44;9.80;1.00
6879;DHT22;3478;51.462;7.338;2024-03-29T03:40:48;9.70;1.00
6879;DHT22;3478;51.462;7.338;2024-03-29T03:45:50;9.70;1.00
6879;DHT22;3478;51.462;7.338;2024-03-29T03:50:52;9.60;1.00
6879;DHT22;3478;51.462;7.338;2024-03-29T03:55:55;9.50;1.80
6879;DHT22;3478;51.462;7.338;2024-03-29T04:00:57;9.50;12.80
6879;DHT22;3478;51.462;7.338;2024-03-29T04:06:05;9.40;13.80
6879;DHT22;3478;51.462;7.338;2024-03-29T04:11:08;9.40;18.40
6879;DHT22;3478;51.462;7.338;2024-03-29T04:16:10;9.30;36.30
6879;DHT22;3478;51.462;7.338;2024-03-29T04:21:12;9.20;57.50
6879;DHT22;3478;51.462;7.338;2024-03-29T04:26:16;9.00;94.50
6879;DHT22;3478;51.462;7.338;2024-03-29T04:31:18;8.90;99.90
6879;DHT22;3478;51.462;7.338;2024-03-29T04:36:20;8.80;99.90
6879;DHT22;3478;51.462;7.338;2024-03-29T04:41:23;8.80;99.90
6879;DHT22;3478;51.462;7.338;2024-03-29T04:46:25;8.90;99.90
6879;DHT22;3478;51.462;7.338;2024-03-29T04:51:27;8.80;99.90
6879;DHT22;3478;51.462;7.338;2024-03-29T04:56:30;8.90;99.90
6879;DHT22;3478;51.462;7.338;2024-03-29T05:01:32;8.90;99.90
6879;DHT22;3478;51.462;7.338;2024-03-29T05:06:35;8.70;99.90
6879;DHT22;3478;51.462;7.338;2024-03-29T05:11:39;8.70;99.90
6879;DHT22;3478;51.462;7.338;2024-03-29T05:16:41;8.60;99.90
6879;DHT22;3478;51.462;7.338;2024-03-29T05:21:42;8.50;99.90
6879;DHT22;3478;51.462;7.338;2024-03-29T05:26:46;8.40;1.00
6879;DHT22;3478;51.462;7.338;2024-03-29T05:31:48;8.30;1.00
6879;DHT22;3478;51.462;7.338;2024-03-29T05:36:50;8.30;1.00
6879;DHT22;3478;51.462;7.338;2024-03-29T05:41:53;8.30;1.00
6879;DHT22;3478;51.462;7.338;2024-03-29T05:46:55;8.20;1.00
6879;DHT22;3478;51.462;7.338;2024-03-29T05:51:57;8.20;1.00
6879;DHT22;3478;51.462;7.338;2024-03-29T05:57:00;8.10;1.00
6879;DHT22;3478;51.462;7.338;2024-03-29T06:02:02;8.10;1.00
6879;DHT22;3478;51.462;7.338;2024-03-29T06:07:05;8.10;99.90
6879;DHT22;3478;51.462;7.338;2024-03-29T06:12:10;8.10;99.90
6879;DHT22;3478;51.462;7.338;2024-03-29T06:17:12;8.10;99.90
6879;DHT22;3478;51.462;7.338;2024-03-29T06:22:26;8.10;81.60
6879;DHT22;3478;51.462;7.338;2024-03-29T06:27:32;8.20;1.00
6879;DHT22;3478;51.462;7.338;2024-03-29T06:32:34;8.30;1.00
6879;DHT22;3478;51.462;7.338;2024-03-29T06:37:36;8.40;1.00
6879;DHT22;3478;51.462;7.338;2024-03-29T06:42:40;8.40;1.00
6879;DHT22;3478;51.462;7.338;2024-03-29T06:47:42;8.40;1.00
6879;DHT22;3478;51.462;7.338;2024-03-29T06:52:43;8.40;1.00
6879;DHT22;3478;51.462;7.338;2024-03-29T06:57:47;8.50;1.00
6879;DHT22;3478;51.462;7.338;2024-03-29T07:02:49;8.50;52.60
6879;DHT22;3478;51.462;7.338;2024-03-29T07:07:51;8.60;28.70
6879;DHT22;3478;51.462;7.338;2024-03-29T07:12:55;8.70;1.00
6879;DHT22;3478;51.462;7.338;2024-03-29T07:17:57;8.80;1.00
6879;DHT22;3478;51.462;7.338;2024-03-29T07:22:59;8.80;1.00
6879;DHT22;3478;51.462;7.338;2024-03-29T07:28:03;8.90;99.90
6879;DHT22;3478;51.462;7.338;2024-03-29T07:33:05;9.00;99.90
6879;DHT22;3478;51.462;7.338;2024-03-29T07:38:07;9.20;1.00
6879;DHT22;3478;51.462;7.338;2024-03-29T07:43:12;9.40;1.00
6879;DHT22;3478;51.462;7.338;2024-03-29T07:48:17;9.60;1.00
6879;DHT22;3478;51.462;7.338;2024-03-29T07:53:20;9.60;1.00
6879;DHT22;3478;51.462;7.338;2024-03-29T07:58:23;9.70;1.00
6879;DHT22;3478;51.462;7.338;2024-03-29T08:03:25;9.80;1.00
6879;DHT22;3478;51.462;7.338;2024-03-29T08:08:27;9.90;1.00
6879;DHT22;3478;51.462;7.338;2024-03-29T08:13:31;9.90;1.00
6879;DHT22;3478;51.462;7.338;2024-03-29T08:18:33;9.90;1.00
6879;DHT22;3478;51.462;7.338;2024-03-29T08:23:36;10.00;1.00
6879;DHT22;3478;51.462;7.338;2024-03-29T08:28:40;10.00;1.00
6879;DHT22;3478;51.462;7.338;2024-03-29T08:33:43;10.10;1.00
6879;DHT22;3478;51.462;7.338;2024-03-29T08:38:45;10.10;1.00
6879;DHT22;3478;51.462;7.338;2024-03-29T08:43:49;10.30;1.00
6879;DHT22;3478;51.462;7.338;2024-03-29T08:48:51;10.30;1.00
6879;DHT22;3478;51.462;7.338;2024-03-29T08:53:53;10.40;1.00
6879;DHT22;3478;51.462;7.338;2024-03-29T08:58:56;10.20;1.00
6879;DHT22;3478;51.462;7.338;2024-03-29T09:03:59;10.20;99.90
6879;DHT22;3478;51.462;7.338;2024-03-29T09:09:01;10.20;1.00
6879;DHT22;3478;51.462;7.338;2024-03-29T09:14:05;10.50;99.90
6879;DHT22;3478;51.462;7.338;2024-03-29T09:19:10;10.70;1.00
6879;DHT22;3478;51.462;7.338;2024-03-29T09:24:12;10.90;1.00
6879;DHT22;3478;51.462;7.338;2024-03-29T09:29:15;11.00;1.00
6879;DHT22;3478;51.462;7.338;2024-03-29T09:34:18;10.90;1.00
6879;DHT22;3478;51.462;7.338;2024-03-29T09:39:20;11.00;1.00
6879;DHT22;3478;51.462;7.338;2024-03-29T09:44:26;11.10;1.00
6879;DHT22;3478;51.462;7.338;2024-03-29T09:49:31;11.40;99.90
6879;DHT22;3478;51.462;7.338;2024-03-29T09:54:33;11.60;99.90
6879;DHT22;3478;51.462;7.338;2024-03-29T09:59:36;11.80;99.90
6879;DHT22;3478;51.462;7.338;2024-03-29T10:04:39;11.90;99.90
6879;DHT22;3478;51.462;7.338;2024-03-29T10:09:42;12.10;99.90
6879;DHT22;3478;51.462;7.338;2024-03-29T10:14:47;12.10;99.90
6879;DHT22;3478;51.462;7.338;2024-03-29T10:19:53;12.30;99.90
6879;DHT22;3478;51.462;7.338;2024-03-29T10:24:56;12.50;99.90
6879;DHT22;3478;51.462;7.338;2024-03-29T10:29:59;12.60;99.90
6879;DHT22;3478;51.462;7.338;2024-03-29T10:35:03;12.60;99.90
6879;DHT22;3478;51.462;7.338;2024-03-29T10:40:07;12.60;99.90
6879;DHT22;3478;51.462;7.338;2024-03-29T10:45:11;12.60;99.90
6879;DHT22;3478;51.462;7.338;2024-03-29T10:50:13;12.60;99.90
6879;DHT22;3478;51.462;7.338;2024-03-29T10:55:16;12.70;99.90
6879;DHT22;3478;51.462;7.338;2024-03-29T11:00:20;12.90;99.90
6879;DHT22;3478;51.462;7.338;2024-03-29T11:05:24;13.10;99.90
6879;DHT22;3478;51.462;7.338;2024-03-29T11:10:33;13.60;99.90
6879;DHT22;3478;51.462;7.338;2024-03-29T11:15:41;13.70;99.90
6879;DHT22;3478;51.462;7.338;2024-03-29T11:20:45;13.70;99.90
6879;DHT22;3478;51.462;7.338;2024-03-29T11:25:52;13.40;99.90
6879;DHT22;3478;51.462;7.338;2024-03-29T11:31:00;13.60;99.90
6879;DHT22;3478;51.462;7.338;2024-03-29T11:36:10;13.90;99.90
6879;DHT22;3478;51.462;7.338;2024-03-29T11:41:14;13.80;99.90
6879;DHT22;3478;51.462;7.338;2024-03-29T11:46:18;13.60;99.90
6879;DHT22;3478;51.462;7.338;2024-03-29T11:51:20;13.60;99.90
6879;DHT22;3478;51.462;7.338;2024-03-29T11:56:26;13.80;99.90
6879;DHT22;3478;51.462;7.338;2024-03-29T12:01:32;15.10;96.10
6879;DHT22;3478;51.462;7.338;2024-03-29T12:06:35;16.40;58.90
6879;DHT22;3478;51.462;7.338;2024-03-29T12:11:37;17.40;41.90
6879;DHT22;3478;51.462;7.338;2024-03-29T12:16:47;17.20;28.10
6879;DHT22;3478;51.462;7.338;2024-03-29T12:21:50;15.80;30.50
6879;DHT22;3478;51.462;7.338;2024-03-29T12:26:52;15.00;55.80
6879;DHT22;3478;51.462;7.338;2024-03-29T12:31:59;14.50;53.50
6879;DHT22;3478;51.462;7.338;2024-03-29T12:37:01;14.10;64.40
6879;DHT22;3478;51.462;7.338;2024-03-29T12:42:04;14.20;85.00
6879;DHT22;3478;51.462;7.338;2024-03-29T12:47:11;14.10;81.90
6879;DHT22;3478;51.462;7.338;2024-03-29T12:52:12;14.20;99.90
6879;DHT22;3478;51.462;7.338;2024-03-29T12:57:15;14.20;89.80
6879;DHT22;3478;51.462;7.338;2024-03-29T13:02:18;14.20;92.00
6879;DHT22;3478;51.462;7.338;2024-03-29T13:07:22;14.10;97.20
6879;DHT22;3478;51.462;7.338;2024-03-29T13:12:24;13.70;99.90
6879;DHT22;3478;51.462;7.338;2024-03-29T13:17:27;13.00;99.90
6879;DHT22;3478;51.462;7.338;2024-03-29T13:22:29;12.90;99.90
6879;DHT22;3478;51.462;7.338;2024-03-29T13:27:31;12.90;99.90
6879;DHT22;3478;51.462;7.338;2024-03-29T13:32:34;13.00;99.90
6879;DHT22;3478;51.462;7.338;2024-03-29T13:37:37;13.00;99.90
6879;DHT22;3478;51.462;7.338;2024-03-29T13:42:40;12.80;99.90
6879;DHT22;3478;51.462;7.338;2024-03-29T13:47:45;12.40;1.00
6879;DHT22;3478;51.462;7.338;2024-03-29T13:52:47;12.30;1.00
6879;DHT22;3478;51.462;7.338;2024-03-29T13:57:50;12.30;1.00
6879;DHT22;3478;51.462;7.338;2024-03-29T14:02:53;12.20;99.90
6879;DHT22;3478;51.462;7.338;2024-03-29T14:07:56;12.20;1.00
6879;DHT22;3478;51.462;7.338;2024-03-29T14:12:58;12.40;99.90
6879;DHT22;3478;51.462;7.338;2024-03-29T14:18:04;12.50;99.90
6879;DHT22;3478;51.462;7.338;2024-03-29T14:23:06;12.60;1.00
6879;DHT22;3478;51.462;7.338;2024-03-29T14:28:11;12.70;25.70
6879;DHT22;3478;51.462;7.338;2024-03-29T14:33:14;12.90;1.00
6879;DHT22;3478;51.462;7.338;2024-03-29T14:38:16;13.00;99.90
6879;DHT22;3478;51.462;7.338;2024-03-29T14:43:18;13.70;99.90
6879;DHT22;3478;51.462;7.338;2024-03-29T14:48:21;14.10;1.00
6879;DHT22;3478;51.462;7.338;2024-03-29T14:53:25;14.10;1.00
6879;DHT22;3478;51.462;7.338;2024-03-29T14:58:27;14.90;99.90
6879;DHT22;3478;51.462;7.338;2024-03-29T15:03:30;14.60;99.90
6879;DHT22;3478;51.462;7.338;2024-03-29T15:08:32;14.10;99.90
6879;DHT22;3478;51.462;7.338;2024-03-29T15:13:34;13.70;99.90
6879;DHT22;3478;51.462;7.338;2024-03-29T15:18:37;13.50;99.90
6879;DHT22;3478;51.462;7.338;2024-03-29T15:23:39;13.30;99.90
6879;DHT22;3478;51.462;7.338;2024-03-29T15:28:41;13.50;99.90
6879;DHT22;3478;51.462;7.338;2024-03-29T15:34:08;13.80;99.90
6879;DHT22;3478;51.462;7.338;2024-03-29T15:39:09;14.10;99.90
6879;DHT22;3478;51.462;7.338;2024-03-29T15:44:15;14.40;99.90
6879;DHT22;3478;51.462;7.338;2024-03-29T15:49:19;14.60;99.90
6879;DHT22;3478;51.462;7.338;2024-03-29T15:54:21;14.10;99.90
6879;DHT22;3478;51.462;7.338;2024-03-29T15:59:23;13.90;99.90
6879;DHT22;3478;51.462;7.338;2024-03-29T16:04:26;13.60;99.90
6879;DHT22;3478;51.462;7.338;2024-03-29T16:09:29;13.30;99.90
6879;DHT22;3478;51.462;7.338;2024-03-29T16:14:31;13.30;99.90
6879;DHT22;3478;51.462;7.338;2024-03-29T16:19:34;13.30;99.90
6879;DHT22;3478;51.462;7.338;2024-03-29T16:24:36;13.30;99.90
6879;DHT22;3478;51.462;7.338;2024-03-29T16:29:38;13.30;99.90
6879;DHT22;3478;51.462;7.338;2024-03-29T16:34:41;13.20;99.90
6879;DHT22;3478;51.462;7.338;2024-03-29T16:39:45;13.10;99.90
6879;DHT22;3478;51.462;7.338;2024-03-29T16:44:47;13.00;99.90
6879;DHT22;3478;51.462;7.338;2024-03-29T16:49:50;13.00;99.90
6879;DHT22;3478;51.462;7.338;2024-03-29T16:54:52;13.00;99.90
6879;DHT22;3478;51.462;7.338;2024-03-29T16:59:54;13.00;99.90
6879;DHT22;3478;51.462;7.338;2024-03-29T17:04:57;12.90;99.90
6879;DHT22;3478;51.462;7.338;2024-03-29T17:09:59;12.80;99.90
6879;DHT22;3478;51.462;7.338;2024-03-29T17:15:01;12.70;99.90
6879;DHT22;3478;51.462;7.338;2024-03-29T17:20:06;12.70;99.90
6879;DHT22;3478;51.462;7.338;2024-03-29T17:25:08;12.70;99.90
6879;DHT22;3478;51.462;7.338;2024-03-29T17:30:10;12.60;99.90
6879;DHT22;3478;51.462;7.338;2024-03-29T17:35:14;12.60;99.90
6879;DHT22;3478;51.462;7.338;2024-03-29T17:40:16;12.50;99.90
6879;DHT22;3478;51.462;7.338;2024-03-29T17:45:18;12.50;99.90
6879;DHT22;3478;51.462;7.338;2024-03-29T17:50:21;12.50;99.90
6879;DHT22;3478;51.462;7.338;2024-03-29T17:55:23;12.40;99.90
6879;DHT22;3478;51.462;7.338;2024-03-29T18:00:25;12.30;99.90
6879;DHT22;3478;51.462;7.338;2024-03-29T18:05:28;12.30;99.90
6879;DHT22;3478;51.462;7.338;2024-03-29T18:10:30;12.30;99.90
6879;DHT22;3478;51.462;7.338;2024-03-29T18:15:32;12.20;99.90
6879;DHT22;3478;51.462;7.338;2024-03-29T18:20:41;12.20;99.90
6879;DHT22;3478;51.462;7.338;2024-03-29T18:25:43;12.20;99.90
6879;DHT22;3478;51.462;7.338;2024-03-29T18:30:47;12.20;99.90
6879;DHT22;3478;51.462;7.338;2024-03-29T18:35:50;12.10;99.90
6879;DHT22;3478;51.462;7.338;2024-03-29T18:40:58;12.10;99.90
6879;DHT22;3478;51.462;7.338;2024-03-29T18:46:03;12.00;99.90
6879;DHT22;3478;51.462;7.338;2024-03-29T18:51:06;11.90;99.90
6879;DHT22;3478;51.462;7.338;2024-03-29T18:56:08;11.90;99.90
6879;DHT22;3478;51.462;7.338;2024-03-29T19:01:10;11.80;99.90
6879;DHT22;3478;51.462;7.338;2024-03-29T19:06:14;11.80;99.90
6879;DHT22;3478;51.462;7.338;2024-03-29T19:11:21;11.80;99.90
6879;DHT22;3478;51.462;7.338;2024-03-29T19:16:25;11.70;99.90
6879;DHT22;3478;51.462;7.338;2024-03-29T19:21:28;11.70;99.90
6879;DHT22;3478;51.462;7.338;2024-03-29T19:26:32;11.60;99.90
6879;DHT22;3478;51.462;7.338;2024-03-29T19:31:34;11.60;99.90
6879;DHT22;3478;51.462;7.338;2024-03-29T19:36:39;11.50;99.90
6879;DHT22;3478;51.462;7.338;2024-03-29T19:41:41;11.50;99.90
6879;DHT22;3478;51.462;7.338;2024-03-29T19:46:42;11.50;99.90
6879;DHT22;3478;51.462;7.338;2024-03-29T19:51:46;11.50;99.90
6879;DHT22;3478;51.462;7.338;2024-03-29T19:56:47;11.40;99.90
6879;DHT22;3478;51.462;7.338;2024-03-29T20:01:51;11.40;99.90
6879;DHT22;3478;51.462;7.338;2024-03-29T20:06:55;11.40;99.90
6879;DHT22;3478;51.462;7.338;2024-03-29T20:11:56;11.40;99.90
6879;DHT22;3478;51.462;7.338;2024-03-29T20:16:58;11.30;99.90
6879;DHT22;3478;51.462;7.338;2024-03-29T20:22:02;11.30;99.90
6879;DHT22;3478;51.462;7.338;2024-03-29T20:27:04;11.30;99.90
6879;DHT22;3478;51.462;7.338;2024-03-29T20:32:08;11.40;99.90
6879;DHT22;3478;51.462;7.338;2024-03-29T20:37:12;11.30;99.90
6879;DHT22;3478;51.462;7.338;2024-03-29T20:42:14;11.30;99.90
6879;DHT22;3478;51.462;7.338;2024-03-29T20:47:16;11.30;99.90
6879;DHT22;3478;51.462;7.338;2024-03-29T20:52:20;11.20;99.90
6879;DHT22;3478;51.462;7.338;2024-03-29T20:57:22;11.30;99.90
6879;DHT22;3478;51.462;7.338;2024-03-29T21:02:24;11.30;99.90
6879;DHT22;3478;51.462;7.338;2024-03-29T21:07:45;11.30;99.90
6879;DHT22;3478;51.462;7.338;2024-03-29T21:12:47;11.20;99.90
6879;DHT22;3478;51.462;7.338;2024-03-29T21:17:49;11.20;99.90
6879;DHT22;3478;51.462;7.338;2024-03-29T21:22:55;11.20;99.90
6879;DHT22;3478;51.462;7.338;2024-03-29T21:27:58;11.20;99.90
6879;DHT22;3478;51.462;7.338;2024-03-29T21:33:04;11.20;99.90
6879;DHT22;3478;51.462;7.338;2024-03-29T21:38:07;11.10;99.90
6879;DHT22;3478;51.462;7.338;2024-03-29T21:43:09;11.10;99.90
6879;DHT22;3478;51.462;7.338;2024-03-29T21:48:13;11.10;1.00
6879;DHT22;3478;51.462;7.338;2024-03-29T21:53:19;11.10;99.90
6879;DHT22;3478;51.462;7.338;2024-03-29T21:58:22;11.10;99.90
6879;DHT22;3478;51.462;7.338;2024-03-29T22:03:24;11.10;99.90
6879;DHT22;3478;51.462;7.338;2024-03-29T22:08:27;11.20;99.90
6879;DHT22;3478;51.462;7.338;2024-03-29T22:13:29;11.20;1.00
6879;DHT22;3478;51.462;7.338;2024-03-29T22:18:31;11.20;1.00
6879;DHT22;3478;51.462;7.338;2024-03-29T22:23:34;11.10;1.00
6879;DHT22;3478;51.462;7.338;2024-03-29T22:28:36;11.10;1.00
6879;DHT22;3478;51.462;7.338;2024-03-29T22:33:39;11.00;1.00
6879;DHT22;3478;51.462;7.338;2024-03-29T22:38:42;11.00;1.00
6879;DHT22;3478;51.462;7.338;2024-03-29T22:43:44;11.00;76.60
6879;DHT22;3478;51.462;7.338;2024-03-29T22:48:45;11.00;76.90
6879;DHT22;3478;51.462;7.338;2024-03-29T22:53:49;11.00;1.00
6879;DHT22;3478;51.462;7.338;2024-03-29T22:58:51;11.00;99.90
6879;DHT22;3478;51.462;7.338;2024-03-29T23:03:53;11.10;99.90
6879;DHT22;3478;51.462;7.338;2024-03-29T23:08:59;11.10;92.50
6879;DHT22;3478;51.462;7.338;2024-03-29T23:14:01;11.00;99.90
6879;DHT22;3478;51.462;7.338;2024-03-29T23:19:03;11.00;1.00
6879;DHT22;3478;51.462;7.338;2024-03-29T23:24:06;11.00;1.00
6879;DHT22;3478;51.462;7.338;2024-03-29T23:29:09;10.90;1.00
6879;DHT22;3478;51.462;7.338;2024-03-29T23:34:11;10.90;1.00
6879;DHT22;3478;51.462;7.338;2024-03-29T23:39:14;10.80;99.90
6879;DHT22;3478;51.462;7.338;2024-03-29T23:44:17;10.80;1.00
6879;DHT22;3478;51.462;7.338;2024-03-29T23:49:19;10.80;1.00
6879;DHT22;3478;51.462;7.338;2024-03-29T23:54:22;10.90;99.90
6879;DHT22;3478;51.462;7.338;2024-03-29T23:59:24;10.90;99.90
